sensor_id;sensor_type;location;lat;lon;timestamp;P1;durP1;ratioP1;P2;durP2;ratioP2
5876;SDS011;2964;42.144;24.730;2023-01-25T00:01:01;8.73;;;7.97;;
5876;SDS011;2964;42.144;24.730;2023-01-25T00:03:29;7.73;;;7.03;;
5876;SDS011;2964;42.144;24.730;2023-01-25T00:05:58;8.03;;;7.23;;
5876;SDS011;2964;42.144;24.730;2023-01-25T00:08:25;7.93;;;7.33;;
5876;SDS011;2964;42.144;24.730;2023-01-25T00:10:52;10.93;;;7.27;;
5876;SDS011;2964;42.144;24.730;2023-01-25T00:13:19;8.13;;;7.53;;
5876;SDS011;2964;42.144;24.730;2023-01-25T00:15:47;13.37;;;9.67;;
5876;SDS011;2964;42.144;24.730;2023-01-25T00:18:13;10.10;;;9.10;;
5876;SDS011;2964;42.144;24.730;2023-01-25T00:20:40;9.23;;;8.47;;
5876;SDS011;2964;42.144;24.730;2023-01-25T00:23:07;9.87;;;8.97;;
5876;SDS011;2964;42.144;24.730;2023-01-25T00:25:33;9.57;;;8.77;;
5876;SDS011;2964;42.144;24.730;2023-01-25T00:28:00;10.43;;;9.23;;
5876;SDS011;2964;42.144;24.730;2023-01-25T00:30:27;9.67;;;8.67;;
5876;SDS011;2964;42.144;24.730;2023-01-25T00:32:56;8.73;;;7.87;;
5876;SDS011;2964;42.144;24.730;2023-01-25T00:35:28;7.33;;;6.73;;
5876;SDS011;2964;42.144;24.730;2023-01-25T00:37:56;9.20;;;8.40;;
5876;SDS011;2964;42.144;24.730;2023-01-25T00:40:27;8.97;;;8.07;;
5876;SDS011;2964;42.144;24.730;2023-01-25T00:42:53;8.93;;;8.03;;
5876;SDS011;2964;42.144;24.730;2023-01-25T00:45:20;7.40;;;6.77;;
5876;SDS011;2964;42.144;24.730;2023-01-25T00:47:47;7.87;;;7.17;;
5876;SDS011;2964;42.144;24.730;2023-01-25T00:50:15;6.77;;;6.13;;
5876;SDS011;2964;42.144;24.730;2023-01-25T00:52:42;14.03;;;7.10;;
5876;SDS011;2964;42.144;24.730;2023-01-25T00:55:08;7.63;;;7.00;;
5876;SDS011;2964;42.144;24.730;2023-01-25T00:57:35;6.20;;;5.73;;
5876;SDS011;2964;42.144;24.730;2023-01-25T01:00:02;7.73;;;6.97;;
5876;SDS011;2964;42.144;24.730;2023-01-25T01:02:29;6.57;;;6.17;;
5876;SDS011;2964;42.144;24.730;2023-01-25T01:04:56;6.90;;;6.13;;
5876;SDS011;2964;42.144;24.730;2023-01-25T01:07:24;8.07;;;7.00;;
5876;SDS011;2964;42.144;24.730;2023-01-25T01:09:52;6.97;;;6.50;;
5876;SDS011;2964;42.144;24.730;2023-01-25T01:12:19;9.80;;;7.50;;
5876;SDS011;2964;42.144;24.730;2023-01-25T01:14:46;6.93;;;6.37;;
5876;SDS011;2964;42.144;24.730;2023-01-25T01:17:12;6.93;;;6.33;;
5876;SDS011;2964;42.144;24.730;2023-01-25T01:19:39;5.40;;;5.10;;
5876;SDS011;2964;42.144;24.730;2023-01-25T01:22:06;6.63;;;6.13;;
5876;SDS011;2964;42.144;24.730;2023-01-25T01:24:34;7.20;;;6.60;;
5876;SDS011;2964;42.144;24.730;2023-01-25T01:27:01;6.07;;;5.57;;
5876;SDS011;2964;42.144;24.730;2023-01-25T01:29:27;7.03;;;6.43;;
5876;SDS011;2964;42.144;24.730;2023-01-25T01:31:54;7.47;;;6.87;;
5876;SDS011;2964;42.144;24.730;2023-01-25T01:34:21;7.97;;;7.17;;
5876;SDS011;2964;42.144;24.730;2023-01-25T01:36:48;6.60;;;6.10;;
5876;SDS011;2964;42.144;24.730;2023-01-25T01:39:14;6.77;;;6.17;;
5876;SDS011;2964;42.144;24.730;2023-01-25T01:41:42;7.00;;;6.27;;
5876;SDS011;2964;42.144;24.730;2023-01-25T01:44:12;6.60;;;6.00;;
5876;SDS011;2964;42.144;24.730;2023-01-25T01:46:42;5.87;;;5.37;;
5876;SDS011;2964;42.144;24.730;2023-01-25T01:49:15;8.73;;;7.63;;
5876;SDS011;2964;42.144;24.730;2023-01-25T01:51:45;6.77;;;6.17;;
5876;SDS011;2964;42.144;24.730;2023-01-25T01:54:15;6.13;;;5.57;;
5876;SDS011;2964;42.144;24.730;2023-01-25T01:56:51;7.77;;;7.00;;
5876;SDS011;2964;42.144;24.730;2023-01-25T01:59:24;6.40;;;5.47;;
5876;SDS011;2964;42.144;24.730;2023-01-25T02:01:53;6.60;;;6.10;;
5876;SDS011;2964;42.144;24.730;2023-01-25T02:04:21;5.77;;;5.33;;
5876;SDS011;2964;42.144;24.730;2023-01-25T02:06:51;6.03;;;5.53;;
5876;SDS011;2964;42.144;24.730;2023-01-25T02:09:23;5.80;;;5.40;;
5876;SDS011;2964;42.144;24.730;2023-01-25T02:11:53;5.13;;;4.70;;
5876;SDS011;2964;42.144;24.730;2023-01-25T02:14:22;6.40;;;6.00;;
5876;SDS011;2964;42.144;24.730;2023-01-25T02:16:48;6.07;;;5.57;;
5876;SDS011;2964;42.144;24.730;2023-01-25T02:19:16;6.87;;;6.43;;
5876;SDS011;2964;42.144;24.730;2023-01-25T02:21:54;6.37;;;5.87;;
5876;SDS011;2964;42.144;24.730;2023-01-25T02:24:25;6.37;;;5.87;;
5876;SDS011;2964;42.144;24.730;2023-01-25T02:26:57;6.07;;;5.57;;
5876;SDS011;2964;42.144;24.730;2023-01-25T02:29:25;6.17;;;5.67;;
5876;SDS011;2964;42.144;24.730;2023-01-25T02:31:57;6.77;;;6.17;;
5876;SDS011;2964;42.144;24.730;2023-01-25T02:34:24;7.13;;;6.33;;
5876;SDS011;2964;42.144;24.730;2023-01-25T02:36:51;6.23;;;5.73;;
5876;SDS011;2964;42.144;24.730;2023-01-25T02:39:18;6.10;;;5.70;;
5876;SDS011;2964;42.144;24.730;2023-01-25T02:41:45;6.50;;;6.00;;
5876;SDS011;2964;42.144;24.730;2023-01-25T02:44:15;6.30;;;5.90;;
5876;SDS011;2964;42.144;24.730;2023-01-25T02:46:43;6.07;;;5.17;;
5876;SDS011;2964;42.144;24.730;2023-01-25T02:49:10;5.73;;;5.43;;
5876;SDS011;2964;42.144;24.730;2023-01-25T02:51:38;6.27;;;5.73;;
5876;SDS011;2964;42.144;24.730;2023-01-25T02:54:06;5.37;;;4.97;;
5876;SDS011;2964;42.144;24.730;2023-01-25T02:56:35;5.60;;;5.20;;
5876;SDS011;2964;42.144;24.730;2023-01-25T02:59:02;6.80;;;6.30;;
5876;SDS011;2964;42.144;24.730;2023-01-25T03:01:31;5.67;;;5.27;;
5876;SDS011;2964;42.144;24.730;2023-01-25T03:03:58;5.90;;;5.30;;
5876;SDS011;2964;42.144;24.730;2023-01-25T03:06:25;5.53;;;5.13;;
5876;SDS011;2964;42.144;24.730;2023-01-25T03:08:54;5.50;;;5.20;;
5876;SDS011;2964;42.144;24.730;2023-01-25T03:11:28;5.80;;;5.17;;
5876;SDS011;2964;42.144;24.730;2023-01-25T03:14:04;5.33;;;5.03;;
5876;SDS011;2964;42.144;24.730;2023-01-25T03:16:41;5.43;;;5.03;;
5876;SDS011;2964;42.144;24.730;2023-01-25T03:19:07;4.93;;;4.63;;
5876;SDS011;2964;42.144;24.730;2023-01-25T03:21:35;5.73;;;5.33;;
5876;SDS011;2964;42.144;24.730;2023-01-25T03:24:08;5.40;;;5.00;;
5876;SDS011;2964;42.144;24.730;2023-01-25T03:26:36;5.50;;;5.20;;
5876;SDS011;2964;42.144;24.730;2023-01-25T03:29:22;6.37;;;5.83;;
5876;SDS011;2964;42.144;24.730;2023-01-25T03:31:50;5.67;;;5.27;;
5876;SDS011;2964;42.144;24.730;2023-01-25T03:34:17;5.90;;;5.50;;
5876;SDS011;2964;42.144;24.730;2023-01-25T03:36:44;5.67;;;5.30;;
5876;SDS011;2964;42.144;24.730;2023-01-25T03:39:10;7.47;;;6.03;;
5876;SDS011;2964;42.144;24.730;2023-01-25T03:41:37;6.87;;;5.60;;
5876;SDS011;2964;42.144;24.730;2023-01-25T03:44:04;5.13;;;4.70;;
5876;SDS011;2964;42.144;24.730;2023-01-25T03:46:30;5.47;;;5.07;;
5876;SDS011;2964;42.144;24.730;2023-01-25T03:48:59;5.17;;;4.87;;
5876;SDS011;2964;42.144;24.730;2023-01-25T03:51:25;4.83;;;4.53;;
5876;SDS011;2964;42.144;24.730;2023-01-25T03:53:52;5.73;;;5.30;;
5876;SDS011;2964;42.144;24.730;2023-01-25T03:56:18;5.73;;;5.20;;
5876;SDS011;2964;42.144;24.730;2023-01-25T03:58:45;5.10;;;4.80;;
5876;SDS011;2964;42.144;24.730;2023-01-25T04:01:12;5.43;;;5.03;;
5876;SDS011;2964;42.144;24.730;2023-01-25T04:03:39;5.97;;;5.47;;
5876;SDS011;2964;42.144;24.730;2023-01-25T04:06:07;5.53;;;5.03;;
5876;SDS011;2964;42.144;24.730;2023-01-25T04:08:34;5.80;;;5.30;;
5876;SDS011;2964;42.144;24.730;2023-01-25T04:11:02;5.87;;;5.50;;
5876;SDS011;2964;42.144;24.730;2023-01-25T04:13:30;7.30;;;5.30;;
5876;SDS011;2964;42.144;24.730;2023-01-25T04:15:59;5.63;;;5.23;;
5876;SDS011;2964;42.144;24.730;2023-01-25T04:18:26;5.43;;;5.03;;
5876;SDS011;2964;42.144;24.730;2023-01-25T04:20:53;5.53;;;5.13;;
5876;SDS011;2964;42.144;24.730;2023-01-25T04:23:23;5.20;;;4.80;;
5876;SDS011;2964;42.144;24.730;2023-01-25T04:25:52;6.13;;;5.73;;
5876;SDS011;2964;42.144;24.730;2023-01-25T04:28:19;5.70;;;5.30;;
5876;SDS011;2964;42.144;24.730;2023-01-25T04:30:46;8.90;;;5.10;;
5876;SDS011;2964;42.144;24.730;2023-01-25T04:33:13;6.07;;;4.77;;
5876;SDS011;2964;42.144;24.730;2023-01-25T04:35:40;5.37;;;5.07;;
5876;SDS011;2964;42.144;24.730;2023-01-25T04:38:08;5.33;;;4.83;;
5876;SDS011;2964;42.144;24.730;2023-01-25T04:40:36;5.40;;;5.03;;
5876;SDS011;2964;42.144;24.730;2023-01-25T04:43:04;5.30;;;4.80;;
5876;SDS011;2964;42.144;24.730;2023-01-25T04:45:32;4.90;;;4.60;;
5876;SDS011;2964;42.144;24.730;2023-01-25T04:48:01;6.50;;;6.00;;
5876;SDS011;2964;42.144;24.730;2023-01-25T04:50:29;5.67;;;5.37;;
5876;SDS011;2964;42.144;24.730;2023-01-25T04:52:56;6.83;;;6.43;;
5876;SDS011;2964;42.144;24.730;2023-01-25T04:55:23;7.30;;;6.60;;
5876;SDS011;2964;42.144;24.730;2023-01-25T04:57:51;7.60;;;7.00;;
5876;SDS011;2964;42.144;24.730;2023-01-25T05:00:18;7.47;;;6.97;;
5876;SDS011;2964;42.144;24.730;2023-01-25T05:02:48;6.73;;;6.33;;
5876;SDS011;2964;42.144;24.730;2023-01-25T05:05:15;7.00;;;6.40;;
5876;SDS011;2964;42.144;24.730;2023-01-25T05:07:42;7.90;;;7.20;;
5876;SDS011;2964;42.144;24.730;2023-01-25T05:10:09;6.63;;;6.10;;
5876;SDS011;2964;42.144;24.730;2023-01-25T05:12:37;5.37;;;4.97;;
5876;SDS011;2964;42.144;24.730;2023-01-25T05:15:05;4.87;;;4.53;;
5876;SDS011;2964;42.144;24.730;2023-01-25T05:17:33;7.07;;;5.83;;
5876;SDS011;2964;42.144;24.730;2023-01-25T05:20:00;4.97;;;4.67;;
5876;SDS011;2964;42.144;24.730;2023-01-25T05:22:26;6.10;;;5.60;;
5876;SDS011;2964;42.144;24.730;2023-01-25T05:24:53;7.07;;;6.67;;
5876;SDS011;2964;42.144;24.730;2023-01-25T05:27:20;7.27;;;6.03;;
5876;SDS011;2964;42.144;24.730;2023-01-25T05:29:46;6.63;;;6.10;;
5876;SDS011;2964;42.144;24.730;2023-01-25T05:32:15;5.83;;;5.30;;
5876;SDS011;2964;42.144;24.730;2023-01-25T05:34:43;6.80;;;6.20;;
5876;SDS011;2964;42.144;24.730;2023-01-25T05:37:11;6.53;;;6.00;;
5876;SDS011;2964;42.144;24.730;2023-01-25T05:39:39;6.43;;;5.83;;
5876;SDS011;2964;42.144;24.730;2023-01-25T05:42:07;6.40;;;5.77;;
5876;SDS011;2964;42.144;24.730;2023-01-25T05:44:36;6.07;;;5.50;;
5876;SDS011;2964;42.144;24.730;2023-01-25T05:47:02;6.43;;;6.03;;
5876;SDS011;2964;42.144;24.730;2023-01-25T05:49:30;7.00;;;5.50;;
5876;SDS011;2964;42.144;24.730;2023-01-25T05:51:58;7.80;;;6.60;;
5876;SDS011;2964;42.144;24.730;2023-01-25T05:54:25;6.77;;;6.20;;
5876;SDS011;2964;42.144;24.730;2023-01-25T05:56:52;6.00;;;5.50;;
5876;SDS011;2964;42.144;24.730;2023-01-25T05:59:18;6.20;;;5.80;;
5876;SDS011;2964;42.144;24.730;2023-01-25T06:01:45;6.90;;;6.30;;
5876;SDS011;2964;42.144;24.730;2023-01-25T06:04:12;6.47;;;5.97;;
5876;SDS011;2964;42.144;24.730;2023-01-25T06:06:41;6.07;;;5.67;;
5876;SDS011;2964;42.144;24.730;2023-01-25T06:09:09;6.70;;;6.23;;
5876;SDS011;2964;42.144;24.730;2023-01-25T06:11:36;6.27;;;5.73;;
5876;SDS011;2964;42.144;24.730;2023-01-25T06:14:03;5.90;;;5.37;;
5876;SDS011;2964;42.144;24.730;2023-01-25T06:16:30;7.20;;;6.47;;
5876;SDS011;2964;42.144;24.730;2023-01-25T06:18:57;7.03;;;6.27;;
5876;SDS011;2964;42.144;24.730;2023-01-25T06:21:23;6.53;;;5.93;;
5876;SDS011;2964;42.144;24.730;2023-01-25T06:23:52;9.40;;;6.70;;
5876;SDS011;2964;42.144;24.730;2023-01-25T06:26:19;8.40;;;6.53;;
5876;SDS011;2964;42.144;24.730;2023-01-25T06:28:45;8.07;;;7.37;;
5876;SDS011;2964;42.144;24.730;2023-01-25T06:31:13;9.63;;;6.90;;
5876;SDS011;2964;42.144;24.730;2023-01-25T06:33:41;7.27;;;6.60;;
5876;SDS011;2964;42.144;24.730;2023-01-25T06:36:12;7.67;;;6.87;;
5876;SDS011;2964;42.144;24.730;2023-01-25T06:38:40;7.60;;;6.90;;
5876;SDS011;2964;42.144;24.730;2023-01-25T06:41:10;7.40;;;6.67;;
5876;SDS011;2964;42.144;24.730;2023-01-25T06:43:37;7.03;;;6.53;;
5876;SDS011;2964;42.144;24.730;2023-01-25T06:46:05;7.23;;;6.73;;
5876;SDS011;2964;42.144;24.730;2023-01-25T06:48:33;8.13;;;7.43;;
5876;SDS011;2964;42.144;24.730;2023-01-25T06:51:01;8.40;;;7.60;;
5876;SDS011;2964;42.144;24.730;2023-01-25T06:53:30;8.17;;;7.57;;
5876;SDS011;2964;42.144;24.730;2023-01-25T06:55:58;7.13;;;6.47;;
5876;SDS011;2964;42.144;24.730;2023-01-25T06:58:27;8.10;;;7.40;;
5876;SDS011;2964;42.144;24.730;2023-01-25T07:00:58;8.53;;;7.80;;
5876;SDS011;2964;42.144;24.730;2023-01-25T07:03:25;8.90;;;7.93;;
5876;SDS011;2964;42.144;24.730;2023-01-25T07:05:55;13.23;;;8.20;;
5876;SDS011;2964;42.144;24.730;2023-01-25T07:08:23;10.73;;;7.70;;
5876;SDS011;2964;42.144;24.730;2023-01-25T07:10:52;10.30;;;7.40;;
5876;SDS011;2964;42.144;24.730;2023-01-25T07:13:19;10.97;;;7.93;;
5876;SDS011;2964;42.144;24.730;2023-01-25T07:15:52;9.03;;;8.13;;
5876;SDS011;2964;42.144;24.730;2023-01-25T07:18:19;8.63;;;7.70;;
5876;SDS011;2964;42.144;24.730;2023-01-25T07:20:46;12.63;;;7.27;;
5876;SDS011;2964;42.144;24.730;2023-01-25T07:23:13;11.53;;;6.63;;
5876;SDS011;2964;42.144;24.730;2023-01-25T07:25:42;9.17;;;8.27;;
5876;SDS011;2964;42.144;24.730;2023-01-25T07:28:09;9.43;;;8.70;;
5876;SDS011;2964;42.144;24.730;2023-01-25T07:30:36;7.37;;;6.63;;
5876;SDS011;2964;42.144;24.730;2023-01-25T07:33:04;9.23;;;8.43;;
5876;SDS011;2964;42.144;24.730;2023-01-25T07:35:31;7.90;;;7.10;;
5876;SDS011;2964;42.144;24.730;2023-01-25T07:37:57;9.70;;;7.87;;
5876;SDS011;2964;42.144;24.730;2023-01-25T07:40:24;9.00;;;8.07;;
5876;SDS011;2964;42.144;24.730;2023-01-25T07:42:51;9.97;;;8.00;;
5876;SDS011;2964;42.144;24.730;2023-01-25T07:45:18;14.43;;;8.10;;
5876;SDS011;2964;42.144;24.730;2023-01-25T07:47:44;9.73;;;7.77;;
5876;SDS011;2964;42.144;24.730;2023-01-25T07:50:12;10.07;;;7.87;;
5876;SDS011;2964;42.144;24.730;2023-01-25T07:52:39;7.50;;;6.80;;
5876;SDS011;2964;42.144;24.730;2023-01-25T07:55:07;8.57;;;7.87;;
5876;SDS011;2964;42.144;24.730;2023-01-25T07:57:37;12.37;;;8.27;;
5876;SDS011;2964;42.144;24.730;2023-01-25T08:00:04;8.10;;;7.40;;
5876;SDS011;2964;42.144;24.730;2023-01-25T08:02:33;8.10;;;7.40;;
5876;SDS011;2964;42.144;24.730;2023-01-25T08:05:00;16.30;;;7.53;;
5876;SDS011;2964;42.144;24.730;2023-01-25T08:07:28;10.77;;;9.43;;
5876;SDS011;2964;42.144;24.730;2023-01-25T08:09:55;9.13;;;8.20;;
5876;SDS011;2964;42.144;24.730;2023-01-25T08:12:22;8.37;;;7.57;;
5876;SDS011;2964;42.144;24.730;2023-01-25T08:14:49;10.00;;;7.00;;
5876;SDS011;2964;42.144;24.730;2023-01-25T08:17:16;7.33;;;6.83;;
5876;SDS011;2964;42.144;24.730;2023-01-25T08:19:43;9.30;;;8.40;;
5876;SDS011;2964;42.144;24.730;2023-01-25T08:22:09;14.80;;;7.33;;
5876;SDS011;2964;42.144;24.730;2023-01-25T08:24:39;7.97;;;7.37;;
5876;SDS011;2964;42.144;24.730;2023-01-25T08:27:05;9.80;;;6.63;;
5876;SDS011;2964;42.144;24.730;2023-01-25T08:29:32;7.27;;;6.53;;
5876;SDS011;2964;42.144;24.730;2023-01-25T08:31:58;9.50;;;8.50;;
5876;SDS011;2964;42.144;24.730;2023-01-25T08:34:28;8.30;;;7.63;;
5876;SDS011;2964;42.144;24.730;2023-01-25T08:36:56;9.00;;;7.37;;
5876;SDS011;2964;42.144;24.730;2023-01-25T08:39:23;7.33;;;6.43;;
5876;SDS011;2964;42.144;24.730;2023-01-25T08:41:51;7.80;;;7.03;;
5876;SDS011;2964;42.144;24.730;2023-01-25T08:44:17;8.43;;;7.43;;
5876;SDS011;2964;42.144;24.730;2023-01-25T08:46:46;8.00;;;7.10;;
5876;SDS011;2964;42.144;24.730;2023-01-25T08:49:13;9.17;;;8.20;;
5876;SDS011;2964;42.144;24.730;2023-01-25T08:51:40;9.00;;;7.53;;
5876;SDS011;2964;42.144;24.730;2023-01-25T08:54:09;17.77;;;7.80;;
5876;SDS011;2964;42.144;24.730;2023-01-25T08:56:37;7.63;;;7.03;;
5876;SDS011;2964;42.144;24.730;2023-01-25T08:59:05;8.37;;;7.63;;
5876;SDS011;2964;42.144;24.730;2023-01-25T09:01:33;10.17;;;7.00;;
5876;SDS011;2964;42.144;24.730;2023-01-25T09:04:00;7.83;;;7.23;;
5876;SDS011;2964;42.144;24.730;2023-01-25T09:06:27;9.20;;;8.40;;
5876;SDS011;2964;42.144;24.730;2023-01-25T09:08:54;8.57;;;7.63;;
5876;SDS011;2964;42.144;24.730;2023-01-25T09:11:21;6.97;;;6.47;;
5876;SDS011;2964;42.144;24.730;2023-01-25T09:13:48;8.37;;;7.60;;
5876;SDS011;2964;42.144;24.730;2023-01-25T09:16:17;10.90;;;6.97;;
5876;SDS011;2964;42.144;24.730;2023-01-25T09:18:51;7.47;;;6.87;;
5876;SDS011;2964;42.144;24.730;2023-01-25T09:21:18;8.47;;;7.87;;
5876;SDS011;2964;42.144;24.730;2023-01-25T09:23:46;7.93;;;7.13;;
5876;SDS011;2964;42.144;24.730;2023-01-25T09:26:14;7.40;;;6.80;;
5876;SDS011;2964;42.144;24.730;2023-01-25T09:28:41;9.83;;;7.70;;
5876;SDS011;2964;42.144;24.730;2023-01-25T09:31:11;11.07;;;7.83;;
5876;SDS011;2964;42.144;24.730;2023-01-25T09:33:40;8.50;;;7.80;;
5876;SDS011;2964;42.144;24.730;2023-01-25T09:36:07;10.00;;;8.30;;
5876;SDS011;2964;42.144;24.730;2023-01-25T09:38:35;7.83;;;7.23;;
5876;SDS011;2964;42.144;24.730;2023-01-25T09:41:10;8.17;;;7.43;;
5876;SDS011;2964;42.144;24.730;2023-01-25T09:43:54;8.30;;;7.50;;
5876;SDS011;2964;42.144;24.730;2023-01-25T09:46:36;9.47;;;7.63;;
5876;SDS011;2964;42.144;24.730;2023-01-25T09:49:10;7.90;;;7.23;;
5876;SDS011;2964;42.144;24.730;2023-01-25T09:51:52;7.30;;;6.77;;
5876;SDS011;2964;42.144;24.730;2023-01-25T09:54:35;7.00;;;6.50;;
5876;SDS011;2964;42.144;24.730;2023-01-25T09:57:07;7.17;;;6.57;;
5876;SDS011;2964;42.144;24.730;2023-01-25T09:59:39;8.37;;;7.57;;
5876;SDS011;2964;42.144;24.730;2023-01-25T10:02:11;8.93;;;7.97;;
5876;SDS011;2964;42.144;24.730;2023-01-25T10:04:51;8.30;;;7.57;;
5876;SDS011;2964;42.144;24.730;2023-01-25T10:07:24;8.47;;;7.60;;
5876;SDS011;2964;42.144;24.730;2023-01-25T10:09:57;9.53;;;7.87;;
5876;SDS011;2964;42.144;24.730;2023-01-25T10:12:30;8.30;;;7.40;;
5876;SDS011;2964;42.144;24.730;2023-01-25T10:15:01;10.27;;;8.00;;
5876;SDS011;2964;42.144;24.730;2023-01-25T10:17:42;10.30;;;8.03;;
5876;SDS011;2964;42.144;24.730;2023-01-25T10:20:14;9.23;;;8.43;;
5876;SDS011;2964;42.144;24.730;2023-01-25T10:22:47;7.80;;;7.07;;
5876;SDS011;2964;42.144;24.730;2023-01-25T10:25:19;6.63;;;6.03;;
5876;SDS011;2964;42.144;24.730;2023-01-25T10:27:58;9.43;;;8.23;;
5876;SDS011;2964;42.144;24.730;2023-01-25T10:30:46;8.90;;;6.90;;
5876;SDS011;2964;42.144;24.730;2023-01-25T10:33:20;11.10;;;8.33;;
5876;SDS011;2964;42.144;24.730;2023-01-25T10:35:49;11.77;;;8.00;;
5876;SDS011;2964;42.144;24.730;2023-01-25T10:38:24;8.10;;;7.33;;
5876;SDS011;2964;42.144;24.730;2023-01-25T10:40:55;8.27;;;7.67;;
5876;SDS011;2964;42.144;24.730;2023-01-25T10:43:27;15.83;;;8.73;;
5876;SDS011;2964;42.144;24.730;2023-01-25T10:45:53;6.73;;;6.23;;
5876;SDS011;2964;42.144;24.730;2023-01-25T10:48:22;7.97;;;7.20;;
5876;SDS011;2964;42.144;24.730;2023-01-25T10:50:53;8.40;;;7.43;;
5876;SDS011;2964;42.144;24.730;2023-01-25T10:53:23;7.77;;;7.17;;
5876;SDS011;2964;42.144;24.730;2023-01-25T10:55:59;8.20;;;7.43;;
5876;SDS011;2964;42.144;24.730;2023-01-25T10:58:32;8.50;;;6.90;;
5876;SDS011;2964;42.144;24.730;2023-01-25T11:01:01;10.17;;;7.50;;
5876;SDS011;2964;42.144;24.730;2023-01-25T11:03:35;8.63;;;6.87;;
5876;SDS011;2964;42.144;24.730;2023-01-25T11:06:05;8.90;;;7.47;;
5876;SDS011;2964;42.144;24.730;2023-01-25T11:08:33;11.97;;;7.80;;
5876;SDS011;2964;42.144;24.730;2023-01-25T11:11:22;8.10;;;7.50;;
5876;SDS011;2964;42.144;24.730;2023-01-25T11:13:51;8.07;;;7.27;;
5876;SDS011;2964;42.144;24.730;2023-01-25T11:16:24;8.87;;;7.73;;
5876;SDS011;2964;42.144;24.730;2023-01-25T11:18:56;8.10;;;7.33;;
5876;SDS011;2964;42.144;24.730;2023-01-25T11:21:26;9.37;;;7.50;;
5876;SDS011;2964;42.144;24.730;2023-01-25T11:26:42;8.00;;;6.80;;
5876;SDS011;2964;42.144;24.730;2023-01-25T11:29:11;8.53;;;7.93;;
5876;SDS011;2964;42.144;24.730;2023-01-25T11:31:40;9.63;;;8.20;;
5876;SDS011;2964;42.144;24.730;2023-01-25T11:34:10;9.10;;;8.00;;
5876;SDS011;2964;42.144;24.730;2023-01-25T11:36:42;8.80;;;7.90;;
5876;SDS011;2964;42.144;24.730;2023-01-25T11:39:29;8.07;;;7.37;;
5876;SDS011;2964;42.144;24.730;2023-01-25T11:42:07;11.70;;;8.10;;
5876;SDS011;2964;42.144;24.730;2023-01-25T11:44:55;10.13;;;8.40;;
5876;SDS011;2964;42.144;24.730;2023-01-25T11:47:39;8.80;;;8.00;;
5876;SDS011;2964;42.144;24.730;2023-01-25T11:50:14;7.67;;;7.00;;
5876;SDS011;2964;42.144;24.730;2023-01-25T11:52:53;8.67;;;7.80;;
5876;SDS011;2964;42.144;24.730;2023-01-25T11:55:31;7.03;;;6.47;;
5876;SDS011;2964;42.144;24.730;2023-01-25T11:58:10;8.83;;;8.03;;
5876;SDS011;2964;42.144;24.730;2023-01-25T12:00:52;8.23;;;7.67;;
5876;SDS011;2964;42.144;24.730;2023-01-25T12:06:32;7.13;;;6.70;;
5876;SDS011;2964;42.144;24.730;2023-01-25T12:12:01;8.77;;;8.07;;
5876;SDS011;2964;42.144;24.730;2023-01-25T12:14:44;7.77;;;6.57;;
5876;SDS011;2964;42.144;24.730;2023-01-25T12:17:22;8.17;;;7.50;;
5876;SDS011;2964;42.144;24.730;2023-01-25T12:20:04;10.90;;;7.43;;
5876;SDS011;2964;42.144;24.730;2023-01-25T12:22:55;7.37;;;5.87;;
5876;SDS011;2964;42.144;24.730;2023-01-25T12:25:35;7.10;;;6.43;;
5876;SDS011;2964;42.144;24.730;2023-01-25T12:28:11;8.63;;;6.17;;
5876;SDS011;2964;42.144;24.730;2023-01-25T12:30:48;8.13;;;7.33;;
5876;SDS011;2964;42.144;24.730;2023-01-25T12:33:19;8.60;;;7.97;;
5876;SDS011;2964;42.144;24.730;2023-01-25T12:35:52;8.43;;;7.63;;
5876;SDS011;2964;42.144;24.730;2023-01-25T12:38:25;8.80;;;8.00;;
5876;SDS011;2964;42.144;24.730;2023-01-25T12:41:01;8.60;;;7.80;;
5876;SDS011;2964;42.144;24.730;2023-01-25T12:43:32;9.10;;;8.17;;
5876;SDS011;2964;42.144;24.730;2023-01-25T12:46:11;8.77;;;7.97;;
5876;SDS011;2964;42.144;24.730;2023-01-25T12:48:42;7.60;;;6.97;;
5876;SDS011;2964;42.144;24.730;2023-01-25T12:51:12;7.97;;;7.47;;
5876;SDS011;2964;42.144;24.730;2023-01-25T12:53:41;7.93;;;7.13;;
5876;SDS011;2964;42.144;24.730;2023-01-25T12:56:16;7.03;;;6.60;;
5876;SDS011;2964;42.144;24.730;2023-01-25T12:58:54;7.87;;;7.17;;
5876;SDS011;2964;42.144;24.730;2023-01-25T13:01:27;12.33;;;6.80;;
5876;SDS011;2964;42.144;24.730;2023-01-25T13:04:02;9.23;;;7.33;;
5876;SDS011;2964;42.144;24.730;2023-01-25T13:06:42;7.83;;;7.07;;
5876;SDS011;2964;42.144;24.730;2023-01-25T13:09:15;9.53;;;7.43;;
5876;SDS011;2964;42.144;24.730;2023-01-25T13:11:50;7.90;;;7.20;;
5876;SDS011;2964;42.144;24.730;2023-01-25T13:14:29;7.70;;;7.00;;
5876;SDS011;2964;42.144;24.730;2023-01-25T13:19:54;7.80;;;7.20;;
5876;SDS011;2964;42.144;24.730;2023-01-25T13:25:23;8.47;;;7.67;;
5876;SDS011;2964;42.144;24.730;2023-01-25T13:27:51;8.20;;;7.50;;
5876;SDS011;2964;42.144;24.730;2023-01-25T13:30:40;10.37;;;7.17;;
5876;SDS011;2964;42.144;24.730;2023-01-25T13:33:30;9.10;;;8.03;;
5876;SDS011;2964;42.144;24.730;2023-01-25T13:35:58;8.53;;;7.40;;
5876;SDS011;2964;42.144;24.730;2023-01-25T13:42:04;8.80;;;8.00;;
5876;SDS011;2964;42.144;24.730;2023-01-25T13:44:45;8.10;;;6.80;;
5876;SDS011;2964;42.144;24.730;2023-01-25T13:47:14;8.53;;;7.67;;
5876;SDS011;2964;42.144;24.730;2023-01-25T13:49:45;8.20;;;7.40;;
5876;SDS011;2964;42.144;24.730;2023-01-25T13:52:17;8.17;;;7.47;;
5876;SDS011;2964;42.144;24.730;2023-01-25T13:54:46;7.20;;;6.60;;
5876;SDS011;2964;42.144;24.730;2023-01-25T13:57:18;6.90;;;6.30;;
5876;SDS011;2964;42.144;24.730;2023-01-25T13:59:47;8.33;;;6.97;;
5876;SDS011;2964;42.144;24.730;2023-01-25T14:02:22;7.63;;;7.03;;
5876;SDS011;2964;42.144;24.730;2023-01-25T14:04:49;8.73;;;7.90;;
5876;SDS011;2964;42.144;24.730;2023-01-25T14:07:19;11.67;;;8.00;;
5876;SDS011;2964;42.144;24.730;2023-01-25T14:09:47;8.70;;;7.83;;
5876;SDS011;2964;42.144;24.730;2023-01-25T14:12:19;8.50;;;7.80;;
5876;SDS011;2964;42.144;24.730;2023-01-25T14:14:55;7.47;;;6.83;;
5876;SDS011;2964;42.144;24.730;2023-01-25T14:17:22;7.83;;;6.97;;
5876;SDS011;2964;42.144;24.730;2023-01-25T14:19:49;8.20;;;6.87;;
5876;SDS011;2964;42.144;24.730;2023-01-25T14:22:20;7.23;;;6.73;;
5876;SDS011;2964;42.144;24.730;2023-01-25T14:25:10;7.63;;;6.87;;
5876;SDS011;2964;42.144;24.730;2023-01-25T14:27:44;8.63;;;7.67;;
5876;SDS011;2964;42.144;24.730;2023-01-25T14:30:17;7.87;;;7.03;;
5876;SDS011;2964;42.144;24.730;2023-01-25T14:32:46;7.47;;;6.67;;
5876;SDS011;2964;42.144;24.730;2023-01-25T14:35:33;13.23;;;7.07;;
5876;SDS011;2964;42.144;24.730;2023-01-25T14:38:15;7.20;;;6.67;;
5876;SDS011;2964;42.144;24.730;2023-01-25T14:40:56;7.50;;;6.73;;
5876;SDS011;2964;42.144;24.730;2023-01-25T14:43:27;6.57;;;6.10;;
5876;SDS011;2964;42.144;24.730;2023-01-25T14:45:54;8.30;;;7.50;;
5876;SDS011;2964;42.144;24.730;2023-01-25T14:48:38;7.10;;;6.50;;
5876;SDS011;2964;42.144;24.730;2023-01-25T14:51:23;7.07;;;6.53;;
5876;SDS011;2964;42.144;24.730;2023-01-25T14:53:55;8.47;;;7.80;;
5876;SDS011;2964;42.144;24.730;2023-01-25T14:56:32;7.80;;;7.20;;
5876;SDS011;2964;42.144;24.730;2023-01-25T14:59:14;8.10;;;7.40;;
5876;SDS011;2964;42.144;24.730;2023-01-25T15:01:47;8.30;;;7.47;;
5876;SDS011;2964;42.144;24.730;2023-01-25T15:04:18;10.30;;;7.77;;
5876;SDS011;2964;42.144;24.730;2023-01-25T15:06:45;8.07;;;7.37;;
5876;SDS011;2964;42.144;24.730;2023-01-25T15:09:34;7.83;;;7.30;;
5876;SDS011;2964;42.144;24.730;2023-01-25T15:12:03;8.87;;;8.07;;
5876;SDS011;2964;42.144;24.730;2023-01-25T15:14:33;7.80;;;7.27;;
5876;SDS011;2964;42.144;24.730;2023-01-25T15:20:00;8.20;;;7.40;;
5876;SDS011;2964;42.144;24.730;2023-01-25T15:22:29;8.03;;;7.23;;
5876;SDS011;2964;42.144;24.730;2023-01-25T15:24:56;7.10;;;6.50;;
5876;SDS011;2964;42.144;24.730;2023-01-25T15:27:23;8.33;;;7.60;;
5876;SDS011;2964;42.144;24.730;2023-01-25T15:29:51;8.67;;;7.93;;
5876;SDS011;2964;42.144;24.730;2023-01-25T15:32:18;9.03;;;8.13;;
5876;SDS011;2964;42.144;24.730;2023-01-25T15:34:46;8.17;;;7.20;;
5876;SDS011;2964;42.144;24.730;2023-01-25T15:37:13;8.50;;;7.80;;
5876;SDS011;2964;42.144;24.730;2023-01-25T15:39:41;7.70;;;6.97;;